createdAt,value
2023-04-02T00:00:19.765Z,100.00
2023-04-02T00:03:03.806Z,100.00
2023-04-02T00:05:52.367Z,100.00
2023-04-02T00:08:26.899Z,100.00
2023-04-02T00:10:59.708Z,100.00
2023-04-02T00:13:36.465Z,100.00
2023-04-02T00:16:09.566Z,100.00
2023-04-02T00:18:45.638Z,100.00
2023-04-02T00:21:22.347Z,100.00
2023-04-02T00:23:54.882Z,100.00
2023-04-02T00:26:34.093Z,100.00
2023-04-02T00:29:07.306Z,100.00
2023-04-02T00:31:43.258Z,100.00
2023-04-02T00:34:19.366Z,100.00
2023-04-02T00:36:52.022Z,100.00
2023-04-02T00:39:27.320Z,100.00
2023-04-02T00:42:05.766Z,100.00
2023-04-02T00:44:42.769Z,100.00
2023-04-02T00:47:20.415Z,100.00
2023-04-02T00:49:55.744Z,100.00
2023-04-02T00:52:30.661Z,100.00
2023-04-02T00:55:07.831Z,100.00
2023-04-02T00:57:38.422Z,100.00
2023-04-02T01:00:23.012Z,100.00
2023-04-02T01:03:29.774Z,100.00
2023-04-02T01:06:04.960Z,100.00
2023-04-02T01:08:53.972Z,100.00
2023-04-02T01:11:37.997Z,100.00
2023-04-02T01:14:20.126Z,100.00
2023-04-02T01:16:56.312Z,100.00
2023-04-02T01:19:53.945Z,100.00
2023-04-02T01:22:35.209Z,100.00
2023-04-02T01:25:08.495Z,100.00
2023-04-02T01:27:46.880Z,100.00
2023-04-02T01:30:18.304Z,100.00
2023-04-02T01:32:49.019Z,100.00
2023-04-02T01:35:20.501Z,100.00
2023-04-02T01:37:51.729Z,100.00
2023-04-02T01:40:40.371Z,100.00
2023-04-02T01:43:21.145Z,100.00
2023-04-02T01:45:52.189Z,100.00
2023-04-02T01:48:27.565Z,100.00
2023-04-02T01:51:00.366Z,100.00
2023-04-02T01:53:33.324Z,100.00
2023-04-02T01:56:05.019Z,100.00
2023-04-02T01:58:35.769Z,100.00
2023-04-02T02:01:12.704Z,100.00
2023-04-02T02:03:45.965Z,100.00
2023-04-02T02:06:19.383Z,100.00
2023-04-02T02:08:52.851Z,100.00
2023-04-02T02:11:27.004Z,100.00
2023-04-02T02:14:00.229Z,100.00
2023-04-02T02:16:31.837Z,100.00
2023-04-02T02:19:04.254Z,100.00
2023-04-02T02:21:42.507Z,100.00
2023-04-02T02:24:21.170Z,100.00
2023-04-02T02:26:58.015Z,100.00
2023-04-02T02:29:30.553Z,100.00
2023-04-02T02:32:03.805Z,100.00
2023-04-02T02:34:39.121Z,100.00
2023-04-02T02:37:18.746Z,100.00
2023-04-02T02:39:55.009Z,100.00
2023-04-02T02:42:31.686Z,100.00
2023-04-02T02:45:07.168Z,100.00
2023-04-02T02:47:40.632Z,100.00
2023-04-02T02:50:20.128Z,100.00
2023-04-02T02:52:55.163Z,100.00
2023-04-02T02:55:32.166Z,100.00
2023-04-02T02:58:27.602Z,100.00
2023-04-02T03:01:10.592Z,100.00
2023-04-02T03:03:41.747Z,100.00
2023-04-02T03:06:20.730Z,100.00
2023-04-02T03:08:56.523Z,100.00
2023-04-02T03:11:39.763Z,100.00
2023-04-02T03:14:21.381Z,100.00
2023-04-02T03:16:58.736Z,100.00
2023-04-02T03:19:36.963Z,100.00
2023-04-02T03:22:15.094Z,100.00
2023-04-02T03:24:54.939Z,100.00
2023-04-02T03:27:33.104Z,100.00
2023-04-02T03:30:27.572Z,100.00
2023-04-02T03:33:03.306Z,100.00
2023-04-02T03:35:39.392Z,100.00
2023-04-02T03:38:17.465Z,100.00
2023-04-02T03:41:00.747Z,100.00
2023-04-02T03:43:37.753Z,100.00
2023-04-02T03:46:17.608Z,100.00
2023-04-02T03:48:52.453Z,100.00
2023-04-02T03:51:28.624Z,100.00
2023-04-02T03:53:59.384Z,100.00
2023-04-02T03:56:39.542Z,100.00
2023-04-02T03:59:21.844Z,100.00
2023-04-02T04:01:57.817Z,100.00
2023-04-02T04:04:32.112Z,100.00
2023-04-02T04:07:03.455Z,100.00
2023-04-02T04:09:37.352Z,100.00
2023-04-02T04:12:23.365Z,100.00
2023-04-02T04:15:01.131Z,100.00
2023-04-02T04:17:41.420Z,100.00
2023-04-02T04:20:22.123Z,100.00
2023-04-02T04:22:55.814Z,100.00
2023-04-02T04:25:33.837Z,100.00
2023-04-02T04:28:21.521Z,100.00
2023-04-02T04:31:00.640Z,100.00
2023-04-02T04:33:39.909Z,100.00
2023-04-02T04:36:29.008Z,100.00
2023-04-02T04:39:15.505Z,100.00
2023-04-02T04:41:51.180Z,100.00
2023-04-02T04:44:25.689Z,100.00
2023-04-02T04:47:04.624Z,100.00
2023-04-02T04:49:40.374Z,100.00
2023-04-02T04:52:16.418Z,100.00
2023-04-02T04:54:49.615Z,100.00
2023-04-02T04:57:30.908Z,100.00
2023-04-02T05:00:09.357Z,100.00
2023-04-02T05:02:48.416Z,100.00
2023-04-02T05:05:26.148Z,100.00
2023-04-02T05:08:02.422Z,100.00
2023-04-02T05:10:40.141Z,100.00
2023-04-02T05:13:17.774Z,100.00
2023-04-02T05:15:56.279Z,100.00
2023-04-02T05:18:33.417Z,100.00
2023-04-02T05:21:15.518Z,100.00
2023-04-02T05:23:52.221Z,100.00
2023-04-02T05:26:26.424Z,100.00
2023-04-02T05:29:05.072Z,100.00
2023-04-02T05:31:43.896Z,100.00
2023-04-02T05:34:25.128Z,100.00
2023-04-02T05:36:58.298Z,100.00
2023-04-02T05:39:29.902Z,100.00
2023-04-02T05:42:05.643Z,100.00
2023-04-02T05:44:57.209Z,100.00
2023-04-02T05:47:31.367Z,100.00
2023-04-02T05:50:22.921Z,100.00
2023-04-02T05:52:55.270Z,100.00
2023-04-02T05:55:41.258Z,100.00
2023-04-02T05:58:34.497Z,100.00
2023-04-02T06:01:26.280Z,100.00
2023-04-02T06:04:07.445Z,100.00
2023-04-02T06:06:58.903Z,100.00
2023-04-02T06:09:39.907Z,100.00
2023-04-02T06:12:20.619Z,100.00
2023-04-02T06:14:56.213Z,100.00
2023-04-02T06:17:34.820Z,100.00
2023-04-02T06:20:07.610Z,100.00
2023-04-02T06:22:42.947Z,100.00
2023-04-02T06:25:21.275Z,100.00
2023-04-02T06:27:54.316Z,100.00
2023-04-02T06:30:33.477Z,100.00
2023-04-02T06:33:09.485Z,100.00
2023-04-02T06:35:46.722Z,100.00
2023-04-02T06:38:27.475Z,100.00
2023-04-02T06:41:01.010Z,100.00
2023-04-02T06:44:26.645Z,100.00
2023-04-02T06:47:24.956Z,100.00
2023-04-02T06:49:59.527Z,100.00
2023-04-02T06:52:35.255Z,100.00
2023-04-02T06:55:22.872Z,100.00
2023-04-02T06:57:53.443Z,100.00
2023-04-02T07:00:32.765Z,100.00
2023-04-02T07:03:07.278Z,100.00
2023-04-02T07:05:40.372Z,100.00
2023-04-02T07:08:12.388Z,100.00
2023-04-02T07:10:43.168Z,100.00
2023-04-02T07:13:17.834Z,100.00
2023-04-02T07:15:50.855Z,100.00
2023-04-02T07:18:28.912Z,100.00
2023-04-02T07:21:00.229Z,100.00
2023-04-02T07:23:31.855Z,100.00
2023-04-02T07:26:03.181Z,100.00
2023-04-02T07:28:32.147Z,100.00
2023-04-02T07:31:02.813Z,100.00
2023-04-02T07:33:34.354Z,100.00
2023-04-02T07:36:05.229Z,100.00
2023-04-02T07:38:36.169Z,100.00
2023-04-02T07:41:09.568Z,100.00
2023-04-02T07:43:41.409Z,100.00
2023-04-02T07:46:15.117Z,100.00
2023-04-02T07:48:46.364Z,100.00
2023-04-02T07:51:21.164Z,100.00
2023-04-02T07:53:56.037Z,100.00
2023-04-02T07:56:28.723Z,100.00
2023-04-02T07:58:59.168Z,100.00
2023-04-02T08:01:35.130Z,100.00
2023-04-02T08:04:07.844Z,100.00
2023-04-02T08:06:38.477Z,100.00
2023-04-02T08:09:09.060Z,100.00
2023-04-02T08:11:40.218Z,100.00
2023-04-02T08:14:11.174Z,100.00
2023-04-02T08:16:50.680Z,100.00
2023-04-02T08:19:21.967Z,100.00
2023-04-02T08:21:52.042Z,100.00
2023-04-02T08:24:22.982Z,100.00
2023-04-02T08:26:54.128Z,100.00
2023-04-02T08:29:25.000Z,100.00
2023-04-02T08:31:55.987Z,100.00
2023-04-02T08:34:26.903Z,100.00
2023-04-02T08:37:00.166Z,100.00
2023-04-02T08:39:33.244Z,100.00
2023-04-02T08:42:08.778Z,100.00
2023-04-02T08:44:49.825Z,100.00
2023-04-02T08:47:25.883Z,100.00
2023-04-02T08:50:00.873Z,100.00
2023-04-02T08:52:35.766Z,100.00
2023-04-02T08:55:23.736Z,100.00
2023-04-02T08:58:02.845Z,100.00
2023-04-02T09:00:40.296Z,100.00
2023-04-02T09:03:16.242Z,100.00
2023-04-02T09:05:48.909Z,100.00
2023-04-02T09:08:22.031Z,100.00
2023-04-02T09:10:56.259Z,100.00
2023-04-02T09:13:29.544Z,100.00
2023-04-02T09:16:04.853Z,100.00
2023-04-02T09:18:35.686Z,100.00
2023-04-02T09:21:20.870Z,100.00
2023-04-02T09:23:51.992Z,100.00
2023-04-02T09:26:27.221Z,100.00
2023-04-02T09:29:03.955Z,100.00
2023-04-02T09:31:39.997Z,100.00
2023-04-02T09:34:31.260Z,99.88
2023-04-02T09:37:10.408Z,99.11
2023-04-02T09:39:41.100Z,99.87
2023-04-02T09:42:34.095Z,100.00
2023-04-02T09:45:21.196Z,100.00
2023-04-02T09:47:53.336Z,100.00
2023-04-02T09:50:29.601Z,100.00
2023-04-02T09:53:00.917Z,99.52
2023-04-02T09:55:32.196Z,98.50
2023-04-02T09:58:15.387Z,97.75
2023-04-02T10:00:54.288Z,98.22
2023-04-02T10:03:27.851Z,98.87
2023-04-02T10:06:10.455Z,97.56
2023-04-02T10:08:42.858Z,98.55
2023-04-02T10:11:17.614Z,98.49
2023-04-02T10:13:56.829Z,97.85
2023-04-02T10:16:33.152Z,97.82
2023-04-02T10:19:24.488Z,98.44
2023-04-02T10:21:56.820Z,98.21
2023-04-02T10:24:30.034Z,98.20
2023-04-02T10:27:17.738Z,96.47
2023-04-02T10:30:09.566Z,96.67
2023-04-02T10:32:45.688Z,97.06
2023-04-02T10:35:25.535Z,98.74
2023-04-02T10:38:07.272Z,99.45
2023-04-02T10:40:41.014Z,99.86
2023-04-02T10:43:36.442Z,100.00
2023-04-02T10:46:13.255Z,100.00
2023-04-02T10:48:53.703Z,100.00
2023-04-02T10:51:40.316Z,100.00
2023-04-02T10:54:28.019Z,100.00
2023-04-02T10:57:04.144Z,100.00
2023-04-02T10:59:38.665Z,100.00
2023-04-02T11:02:32.004Z,100.00
2023-04-02T11:05:08.806Z,100.00
2023-04-02T11:07:54.238Z,100.00
2023-04-02T11:10:27.633Z,100.00
2023-04-02T11:13:02.592Z,100.00
2023-04-02T11:15:33.859Z,100.00
2023-04-02T11:18:04.924Z,100.00
2023-04-02T11:21:00.577Z,100.00
2023-04-02T11:23:35.121Z,100.00
2023-04-02T11:26:37.512Z,100.00
2023-04-02T11:29:19.366Z,100.00
2023-04-02T11:31:51.690Z,100.00
2023-04-02T11:35:05.896Z,100.00
2023-04-02T11:37:39.711Z,100.00
2023-04-02T11:40:53.117Z,100.00
2023-04-02T11:44:01.127Z,100.00
2023-04-02T11:46:47.355Z,100.00
2023-04-02T11:49:37.118Z,100.00
2023-04-02T11:52:23.116Z,100.00
2023-04-02T11:55:22.383Z,100.00
2023-04-02T11:58:22.904Z,100.00
2023-04-02T12:01:23.153Z,100.00
2023-04-02T12:04:32.408Z,100.00
2023-04-02T12:07:34.689Z,100.00
2023-04-02T12:10:16.905Z,100.00
2023-04-02T12:12:47.631Z,100.00
2023-04-02T12:15:44.133Z,100.00
2023-04-02T12:18:22.616Z,100.00
2023-04-02T12:20:55.116Z,100.00
2023-04-02T12:23:29.273Z,100.00
2023-04-02T12:26:01.734Z,100.00
2023-04-02T12:28:33.817Z,100.00
2023-04-02T12:31:17.770Z,100.00
2023-04-02T12:33:52.613Z,99.17
2023-04-02T12:36:24.246Z,98.65
2023-04-02T12:38:57.570Z,97.93
2023-04-02T12:41:30.992Z,96.40
2023-04-02T12:44:02.799Z,95.91
2023-04-02T12:46:35.970Z,92.79
2023-04-02T12:49:10.201Z,93.95
2023-04-02T12:51:41.865Z,92.89
2023-04-02T12:54:17.500Z,92.89
2023-04-02T12:56:48.452Z,92.30
2023-04-02T12:59:30.777Z,90.68
2023-04-02T13:02:04.082Z,88.58
2023-04-02T13:04:47.155Z,90.08
2023-04-02T13:07:20.437Z,89.24
2023-04-02T13:09:53.658Z,89.25
2023-04-02T13:12:33.271Z,87.30
2023-04-02T13:15:06.468Z,87.55
2023-04-02T13:17:43.182Z,87.01
2023-04-02T13:20:36.034Z,87.24
2023-04-02T13:23:26.605Z,85.73
2023-04-02T13:25:58.105Z,86.91
2023-04-02T13:28:29.078Z,86.93
2023-04-02T13:31:00.006Z,86.95
2023-04-02T13:33:30.631Z,86.47
2023-04-02T13:36:01.564Z,84.91
2023-04-02T13:38:32.138Z,84.74
2023-04-02T13:41:02.659Z,83.49
2023-04-02T13:43:33.289Z,83.72
2023-04-02T13:46:07.159Z,82.81
2023-04-02T13:48:38.001Z,83.25
2023-04-02T13:51:10.886Z,83.93
2023-04-02T13:53:41.538Z,81.81
2023-04-02T13:56:12.299Z,82.27
2023-04-02T13:58:42.703Z,80.72
2023-04-02T14:01:14.451Z,81.19
2023-04-02T14:03:45.405Z,80.05
2023-04-02T14:06:28.916Z,80.77
2023-04-02T14:09:06.620Z,81.39
2023-04-02T14:11:52.211Z,81.08
2023-04-02T14:14:43.088Z,80.88
2023-04-02T14:17:25.543Z,80.94
2023-04-02T14:20:18.121Z,79.74
2023-04-02T14:23:04.640Z,80.00
2023-04-02T14:25:42.655Z,79.96
2023-04-02T14:28:23.653Z,80.53
2023-04-02T14:31:02.490Z,81.05
2023-04-02T14:33:44.150Z,81.04
2023-04-02T14:36:21.989Z,80.95
2023-04-02T14:39:00.698Z,81.85
2023-04-02T14:41:41.000Z,81.28
2023-04-02T14:44:13.865Z,81.78
2023-04-02T14:46:44.496Z,82.05
2023-04-02T14:49:26.432Z,82.95
2023-04-02T14:52:04.390Z,82.85
2023-04-02T14:54:38.649Z,83.49
2023-04-02T14:57:17.027Z,84.19
2023-04-02T14:59:57.717Z,84.92
2023-04-02T15:02:36.495Z,85.10
2023-04-02T15:05:15.434Z,84.36
2023-04-02T15:07:50.058Z,84.15
2023-04-02T15:10:27.371Z,84.11
2023-04-02T15:12:59.045Z,84.29
2023-04-02T15:15:42.545Z,84.12
2023-04-02T15:18:16.372Z,84.88
2023-04-02T15:20:55.864Z,84.97
2023-04-02T15:23:35.465Z,85.58
2023-04-02T15:26:13.779Z,85.05
2023-04-02T15:28:48.300Z,84.18
2023-04-02T15:31:22.341Z,85.22
2023-04-02T15:33:59.757Z,85.82
2023-04-02T15:36:59.928Z,86.05
2023-04-02T15:39:43.018Z,86.43
2023-04-02T15:42:23.659Z,86.75
2023-04-02T15:45:18.954Z,87.51
2023-04-02T15:48:15.185Z,87.86
2023-04-02T15:50:55.453Z,87.70
2023-04-02T15:53:39.105Z,87.77
2023-04-02T15:56:23.459Z,88.02
2023-04-02T15:59:19.380Z,89.11
2023-04-02T16:02:00.115Z,88.93
2023-04-02T16:04:47.500Z,88.64
2023-04-02T16:07:44.928Z,89.49
2023-04-02T16:10:38.049Z,90.00
2023-04-02T16:13:20.957Z,89.77
2023-04-02T16:15:59.572Z,89.27
2023-04-02T16:18:42.964Z,89.35
2023-04-02T16:21:17.440Z,88.59
2023-04-02T16:23:48.406Z,88.63
2023-04-02T16:26:32.244Z,89.12
2023-04-02T16:29:16.381Z,88.52
2023-04-02T16:31:54.713Z,87.39
2023-04-02T16:34:36.649Z,87.67
2023-04-02T16:37:18.108Z,87.95
2023-04-02T16:39:52.130Z,88.68
2023-04-02T16:42:31.228Z,88.95
2023-04-02T16:45:16.415Z,89.70
2023-04-02T16:47:59.608Z,89.41
2023-04-02T16:50:39.740Z,89.58
2023-04-02T16:53:21.584Z,89.29
2023-04-02T16:56:05.015Z,89.38
2023-04-02T16:58:48.395Z,88.22
2023-04-02T17:01:28.713Z,88.24
2023-04-02T17:04:21.814Z,88.77
2023-04-02T17:07:03.164Z,89.24
2023-04-02T17:09:44.014Z,88.46
2023-04-02T17:12:21.373Z,87.88
2023-04-02T17:14:57.558Z,88.39
2023-04-02T17:17:28.214Z,87.11
2023-04-02T17:20:01.865Z,87.83
2023-04-02T17:22:34.480Z,88.16
2023-04-02T17:25:08.950Z,88.47
2023-04-02T17:27:41.589Z,88.60
2023-04-02T17:30:20.061Z,89.05
2023-04-02T17:32:50.751Z,88.69
2023-04-02T17:35:28.889Z,88.88
2023-04-02T17:38:09.492Z,88.47
2023-04-02T17:40:52.240Z,88.65
2023-04-02T17:43:37.863Z,88.94
2023-04-02T17:46:20.725Z,88.54
2023-04-02T17:48:59.464Z,88.79
2023-04-02T17:51:40.852Z,88.53
2023-04-02T17:54:30.781Z,87.94
2023-04-02T17:57:17.731Z,87.87
2023-04-02T17:59:56.927Z,88.48
2023-04-02T18:02:47.436Z,88.19
2023-04-02T18:05:28.734Z,89.21
2023-04-02T18:08:12.539Z,89.25
2023-04-02T18:10:54.722Z,88.28
2023-04-02T18:13:34.933Z,88.45
2023-04-02T18:16:25.691Z,88.26
2023-04-02T18:19:16.174Z,88.44
2023-04-02T18:21:56.805Z,88.97
2023-04-02T18:25:00.421Z,89.11
2023-04-02T18:28:00.442Z,88.85
2023-04-02T18:30:38.575Z,88.65
2023-04-02T18:33:29.865Z,88.32
2023-04-02T18:36:09.792Z,87.54
2023-04-02T18:38:46.027Z,88.50
2023-04-02T18:41:36.000Z,88.12
2023-04-02T18:44:23.371Z,88.20
2023-04-02T18:46:56.440Z,85.60
2023-04-02T18:49:37.450Z,85.63
2023-04-02T18:52:14.869Z,86.03
2023-04-02T18:54:47.630Z,83.87
2023-04-02T18:57:23.408Z,84.79
2023-04-02T19:00:00.441Z,83.06
2023-04-02T19:02:49.101Z,83.00
2023-04-02T19:05:27.313Z,82.60
2023-04-02T19:08:15.475Z,82.86
2023-04-02T19:10:47.952Z,82.67
2023-04-02T19:13:20.767Z,80.53
2023-04-02T19:16:07.436Z,80.01
2023-04-02T19:18:51.857Z,80.10
2023-04-02T19:21:34.312Z,78.13
2023-04-02T19:24:22.099Z,75.46
2023-04-02T19:26:59.721Z,76.12
2023-04-02T19:29:41.685Z,75.52
2023-04-02T19:32:21.903Z,75.45
2023-04-02T19:34:59.652Z,75.70
2023-04-02T19:37:37.742Z,74.87
2023-04-02T19:40:20.629Z,75.04
2023-04-02T19:42:52.887Z,74.33
2023-04-02T19:45:38.862Z,75.27
2023-04-02T19:48:17.349Z,76.11
2023-04-02T19:50:49.219Z,76.02
2023-04-02T19:53:20.236Z,75.86
2023-04-02T19:55:51.743Z,76.19
2023-04-02T19:58:27.783Z,75.59
2023-04-02T20:00:59.084Z,75.62
2023-04-02T20:03:28.181Z,75.09
2023-04-02T20:05:59.879Z,75.53
2023-04-02T20:08:31.333Z,75.70
2023-04-02T20:11:02.228Z,76.34
2023-04-02T20:13:32.842Z,76.25
2023-04-02T20:16:04.756Z,76.79
2023-04-02T20:18:37.168Z,76.33
2023-04-02T20:21:09.448Z,76.68
2023-04-02T20:23:39.983Z,76.53
2023-04-02T20:26:11.694Z,76.78
2023-04-02T20:28:42.271Z,76.93
2023-04-02T20:31:15.060Z,76.94
2023-04-02T20:33:45.854Z,77.26
2023-04-02T20:36:18.459Z,76.44
2023-04-02T20:38:51.018Z,76.20
2023-04-02T20:41:23.178Z,75.70
2023-04-02T20:43:53.887Z,75.50
2023-04-02T20:46:25.326Z,75.82
2023-04-02T20:48:55.849Z,76.43
2023-04-02T20:51:26.510Z,75.95
2023-04-02T20:53:57.098Z,76.07
2023-04-02T20:56:27.959Z,75.92
2023-04-02T20:58:58.597Z,76.10
2023-04-02T21:01:30.999Z,75.84
2023-04-02T21:04:03.184Z,76.19
2023-04-02T21:06:36.374Z,76.58
2023-04-02T21:09:08.831Z,76.44
2023-04-02T21:11:39.507Z,76.66
2023-04-02T21:14:09.964Z,75.56
2023-04-02T21:16:40.862Z,74.93
2023-04-02T21:19:12.221Z,72.99
2023-04-02T21:21:41.879Z,73.38
2023-04-02T21:24:12.794Z,72.98
2023-04-02T21:26:44.119Z,73.58
2023-04-02T21:29:15.628Z,74.75
2023-04-02T21:31:46.548Z,74.68
2023-04-02T21:34:18.058Z,74.74
2023-04-02T21:36:50.578Z,74.33
2023-04-02T21:39:23.171Z,74.53
2023-04-02T21:41:54.891Z,74.17
2023-04-02T21:44:26.039Z,74.56
2023-04-02T21:46:56.522Z,74.56
2023-04-02T21:49:27.286Z,74.21
2023-04-02T21:51:57.796Z,74.78
2023-04-02T21:54:28.280Z,74.57
2023-04-02T21:56:59.666Z,74.83
2023-04-02T21:59:28.637Z,74.43
2023-04-02T22:01:59.029Z,74.82
2023-04-02T22:04:30.675Z,75.34
2023-04-02T22:07:03.430Z,75.07
2023-04-02T22:09:33.863Z,74.06
2023-04-02T22:12:06.465Z,74.33
2023-04-02T22:14:37.164Z,74.51
2023-04-02T22:17:07.713Z,74.72
2023-04-02T22:19:38.285Z,74.85
2023-04-02T22:22:08.677Z,73.39
2023-04-02T22:24:39.193Z,73.79
2023-04-02T22:27:09.762Z,73.84
2023-04-02T22:29:41.318Z,73.26
2023-04-02T22:32:11.847Z,72.46
2023-04-02T22:34:45.560Z,72.81
2023-04-02T22:37:16.104Z,73.40
2023-04-02T22:39:46.440Z,72.21
2023-04-02T22:42:16.780Z,73.11
2023-04-02T22:44:47.255Z,72.74
2023-04-02T22:47:17.615Z,73.08
2023-04-02T22:49:48.341Z,72.47
2023-04-02T22:52:18.736Z,72.78
2023-04-02T22:54:49.404Z,73.06
2023-04-02T22:57:20.048Z,73.78
2023-04-02T22:59:50.517Z,73.43
2023-04-02T23:02:20.995Z,73.87
2023-04-02T23:04:51.510Z,74.96
2023-04-02T23:07:21.838Z,75.50
2023-04-02T23:09:52.257Z,76.41
2023-04-02T23:12:22.611Z,76.34
2023-04-02T23:14:54.012Z,77.30
2023-04-02T23:17:22.781Z,77.56
2023-04-02T23:19:53.255Z,78.08
2023-04-02T23:22:23.562Z,78.11
2023-04-02T23:24:54.666Z,78.43
2023-04-02T23:27:25.493Z,79.14
2023-04-02T23:29:57.075Z,79.74
2023-04-02T23:32:27.416Z,80.32
2023-04-02T23:34:57.896Z,80.38
2023-04-02T23:37:28.335Z,80.62
2023-04-02T23:39:58.905Z,80.47
2023-04-02T23:42:29.272Z,81.45
2023-04-02T23:44:59.653Z,82.13
2023-04-02T23:47:29.938Z,83.31
2023-04-02T23:50:00.362Z,83.30
2023-04-02T23:52:30.777Z,84.01
2023-04-02T23:55:01.419Z,84.69
2023-04-02T23:57:32.051Z,84.99
